createdAt,value
2023-01-10T00:03:05.279Z,77.55
2023-01-10T00:06:11.900Z,77.41
2023-01-10T00:09:40.566Z,77.39
2023-01-10T00:13:23.134Z,77.40
2023-01-10T00:17:08.341Z,77.56
2023-01-10T00:20:12.541Z,77.60
2023-01-10T00:24:06.671Z,77.65
2023-01-10T00:27:29.946Z,77.86
2023-01-10T00:30:38.280Z,77.98
2023-01-10T00:33:51.625Z,78.09
2023-01-10T00:37:45.419Z,78.14
2023-01-10T00:40:54.503Z,78.15
2023-01-10T00:44:14.620Z,78.12
2023-01-10T00:47:51.700Z,78.10
2023-01-10T00:51:17.835Z,78.20
2023-01-10T00:55:01.156Z,78.35
2023-01-10T00:59:04.733Z,78.28
2023-01-10T01:02:13.219Z,78.41
2023-01-10T01:06:22.809Z,78.37
2023-01-10T01:09:58.443Z,78.35
2023-01-10T01:13:51.372Z,78.50
2023-01-10T01:17:43.802Z,78.41
2023-01-10T01:21:38.501Z,78.38
2023-01-10T01:25:40.917Z,78.42
2023-01-10T01:29:44.464Z,78.66
2023-01-10T01:33:20.726Z,78.56
2023-01-10T01:37:24.306Z,78.55
2023-01-10T01:41:17.675Z,78.72
2023-01-10T01:45:03.729Z,78.77
2023-01-10T01:48:55.517Z,78.64
2023-01-10T01:53:00.712Z,78.52
2023-01-10T01:56:57.875Z,78.72
2023-01-10T02:01:03.027Z,78.89
2023-01-10T02:04:50.176Z,79.23
2023-01-10T02:08:16.231Z,79.22
2023-01-10T02:11:49.577Z,79.16
2023-01-10T02:15:03.489Z,79.24
2023-01-10T02:18:45.967Z,79.36
2023-01-10T02:22:37.876Z,79.66
2023-01-10T02:26:22.342Z,79.83
2023-01-10T02:30:32.501Z,79.90
2023-01-10T02:34:36.570Z,80.14
2023-01-10T02:37:58.761Z,80.23
2023-01-10T02:41:15.727Z,80.13
2023-01-10T02:45:14.553Z,80.23
2023-01-10T02:48:23.588Z,80.53
2023-01-10T02:51:50.766Z,80.77
2023-01-10T02:55:24.378Z,80.97
2023-01-10T02:59:00.933Z,80.99
2023-01-10T03:03:03.879Z,81.14
2023-01-10T03:07:22.572Z,81.32
2023-01-10T03:11:29.259Z,81.58
2023-01-10T03:14:43.808Z,81.49
2023-01-10T03:18:41.352Z,81.44
2023-01-10T03:22:21.741Z,81.60
2023-01-10T03:25:32.751Z,81.38
2023-01-10T03:29:08.921Z,81.32
2023-01-10T03:32:23.835Z,81.23
2023-01-10T03:36:32.067Z,81.18
2023-01-10T03:40:18.314Z,81.10
2023-01-10T03:44:28.826Z,81.14
2023-01-10T03:48:38.216Z,81.26
2023-01-10T03:51:47.342Z,81.06
2023-01-10T03:55:11.288Z,81.13
2023-01-10T03:58:19.707Z,81.12
2023-01-10T04:01:38.285Z,81.20
2023-01-10T04:05:01.675Z,81.23
2023-01-10T04:08:36.008Z,81.33
2023-01-10T04:12:06.810Z,81.27
2023-01-10T04:15:43.683Z,81.40
2023-01-10T04:18:49.183Z,81.36
2023-01-10T04:21:54.675Z,81.42
2023-01-10T04:25:21.235Z,81.38
2023-01-10T04:32:24.820Z,81.40
2023-01-10T04:35:33.420Z,81.52
2023-01-10T04:38:48.884Z,81.66
2023-01-10T04:41:58.546Z,81.63
2023-01-10T04:45:04.353Z,81.70
2023-01-10T04:48:32.015Z,81.57
2023-01-10T04:51:48.810Z,81.59
2023-01-10T04:55:17.924Z,81.60
2023-01-10T04:59:11.438Z,81.75
2023-01-10T05:03:15.055Z,81.88
2023-01-10T05:07:23.164Z,81.85
2023-01-10T05:10:56.604Z,81.69
2023-01-10T05:14:24.788Z,81.80
2023-01-10T05:17:51.458Z,81.81
2023-01-10T05:21:30.353Z,81.79
2023-01-10T05:24:57.668Z,81.72
2023-01-10T05:28:56.799Z,81.69
2023-01-10T05:32:43.017Z,81.79
2023-01-10T05:36:20.354Z,81.76
2023-01-10T05:39:31.549Z,81.82
2023-01-10T05:43:35.810Z,81.97
2023-01-10T05:47:29.348Z,81.94
2023-01-10T05:51:05.159Z,81.82
2023-01-10T05:54:08.693Z,81.72
2023-01-10T05:57:24.949Z,81.93
2023-01-10T06:00:39.792Z,81.95
2023-01-10T06:03:49.500Z,82.02
2023-01-10T06:07:01.161Z,82.11
2023-01-10T06:10:33.866Z,82.04
2023-01-10T06:13:49.032Z,82.03
2023-01-10T06:17:13.764Z,82.07
2023-01-10T06:20:31.150Z,82.04
2023-01-10T06:24:00.452Z,81.85
2023-01-10T06:27:51.950Z,81.84
2023-01-10T06:31:09.400Z,81.89
2023-01-10T06:35:13.112Z,81.82
2023-01-10T06:38:19.435Z,81.66
2023-01-10T06:41:30.860Z,81.70
2023-01-10T06:44:40.942Z,81.69
2023-01-10T06:48:34.473Z,81.55
2023-01-10T06:51:42.093Z,81.75
2023-01-10T06:55:16.054Z,81.71
2023-01-10T06:58:43.683Z,81.85
2023-01-10T07:01:50.041Z,81.86
2023-01-10T07:05:01.913Z,81.93
2023-01-10T07:09:21.043Z,81.89
2023-01-10T07:12:41.444Z,81.93
2023-01-10T07:15:44.741Z,81.78
2023-01-10T07:19:13.608Z,81.80
2023-01-10T07:23:02.522Z,81.91
2023-01-10T07:26:37.946Z,81.91
2023-01-10T07:29:51.470Z,82.14
2023-01-10T07:33:07.745Z,82.04
2023-01-10T07:36:26.035Z,82.00
2023-01-10T07:39:49.793Z,82.41
2023-01-10T07:43:06.407Z,82.49
2023-01-10T07:46:12.417Z,82.82
2023-01-10T07:49:35.599Z,82.70
2023-01-10T07:52:46.569Z,82.75
2023-01-10T07:55:50.418Z,82.84
2023-01-10T07:59:01.296Z,82.85
2023-01-10T08:02:45.139Z,82.80
2023-01-10T08:06:29.203Z,82.73
2023-01-10T08:10:16.673Z,82.86
2023-01-10T08:14:13.565Z,82.72
2023-01-10T08:18:09.899Z,82.70
2023-01-10T08:21:55.215Z,82.68
2023-01-10T08:25:39.467Z,82.68
2023-01-10T08:29:43.291Z,82.71
2023-01-10T08:33:31.678Z,82.78
2023-01-10T08:36:58.248Z,82.84
2023-01-10T08:40:25.938Z,82.98
2023-01-10T08:43:36.681Z,82.98
2023-01-10T08:47:17.716Z,82.94
2023-01-10T08:50:44.362Z,82.93
2023-01-10T08:54:12.957Z,83.24
2023-01-10T08:58:17.575Z,83.19
2023-01-10T09:02:06.400Z,83.23
2023-01-10T09:05:27.935Z,83.31
2023-01-10T09:09:45.419Z,83.20
2023-01-10T09:13:40.312Z,83.06
2023-01-10T09:17:42.898Z,83.05
2023-01-10T09:21:19.937Z,83.06
2023-01-10T09:30:10.474Z,83.21
2023-01-10T09:33:49.868Z,82.92
2023-01-10T09:37:18.577Z,83.21
2023-01-10T09:40:29.395Z,83.00
2023-01-10T09:44:15.760Z,83.12
2023-01-10T09:47:39.113Z,82.85
2023-01-10T09:51:06.709Z,83.05
2023-01-10T09:55:12.638Z,82.91
2023-01-10T09:59:05.227Z,82.80
2023-01-10T10:03:24.457Z,83.04
2023-01-10T10:06:43.259Z,83.04
2023-01-10T10:10:23.665Z,82.74
2023-01-10T10:13:50.211Z,82.88
2023-01-10T10:17:32.411Z,82.77
2023-01-10T10:21:24.988Z,82.81
2023-01-10T10:25:11.170Z,82.78
2023-01-10T10:29:05.756Z,82.88
2023-01-10T10:33:21.549Z,82.94
2023-01-10T10:36:44.979Z,82.90
2023-01-10T10:39:58.553Z,82.94
2023-01-10T10:43:19.890Z,82.86
2023-01-10T10:47:13.368Z,82.89
2023-01-10T10:50:58.673Z,82.88
2023-01-10T10:55:02.228Z,82.94
2023-01-10T10:58:56.135Z,82.85
2023-01-10T11:02:32.157Z,82.57
2023-01-10T11:06:07.989Z,82.73
2023-01-10T11:10:19.519Z,82.52
2023-01-10T11:14:06.731Z,82.36
2023-01-10T11:17:51.062Z,82.23
2023-01-10T11:21:25.571Z,82.14
2023-01-10T11:24:55.314Z,82.08
2023-01-10T11:28:24.280Z,81.76
2023-01-10T11:31:49.491Z,81.77
2023-01-10T11:35:35.940Z,81.89
2023-01-10T11:38:42.383Z,81.57
2023-01-10T11:42:18.712Z,81.64
2023-01-10T11:45:31.511Z,81.33
2023-01-10T11:49:35.613Z,81.43
2023-01-10T11:53:38.104Z,81.38
2023-01-10T11:57:48.081Z,81.20
2023-01-10T12:00:58.813Z,81.19
2023-01-10T12:04:28.153Z,81.06
2023-01-10T12:08:22.150Z,81.04
2023-01-10T12:11:46.600Z,80.71
2023-01-10T12:16:03.188Z,80.46
2023-01-10T12:19:58.498Z,80.54
2023-01-10T12:23:14.967Z,80.38
2023-01-10T12:26:54.262Z,80.35
2023-01-10T12:30:16.785Z,80.53
2023-01-10T12:33:49.794Z,80.32
2023-01-10T12:38:01.259Z,80.22
2023-01-10T12:41:31.240Z,80.08
2023-01-10T12:44:54.949Z,79.75
2023-01-10T12:48:34.415Z,79.73
2023-01-10T12:52:38.008Z,79.26
2023-01-10T12:56:31.905Z,79.42
2023-01-10T13:00:48.326Z,79.48
2023-01-10T13:04:20.193Z,79.35
2023-01-10T13:07:40.818Z,79.23
2023-01-10T13:14:54.637Z,79.12
2023-01-10T13:18:25.924Z,79.22
2023-01-10T13:22:19.873Z,78.78
2023-01-10T13:26:26.686Z,78.79
2023-01-10T13:30:17.518Z,78.88
2023-01-10T13:34:20.413Z,78.81
2023-01-10T13:37:32.489Z,78.85
2023-01-10T13:41:37.204Z,78.70
2023-01-10T13:45:40.956Z,78.60
2023-01-10T13:49:40.103Z,78.60
2023-01-10T13:53:26.810Z,78.57
2023-01-10T13:57:36.289Z,78.62
2023-01-10T14:01:38.448Z,78.63
2023-01-10T14:05:12.855Z,78.66
2023-01-10T14:08:36.248Z,78.63
2023-01-10T14:12:46.147Z,78.73
2023-01-10T14:16:17.105Z,78.60
2023-01-10T14:20:17.528Z,78.60
2023-01-10T14:23:58.320Z,78.51
2023-01-10T14:27:14.920Z,78.60
2023-01-10T14:31:17.373Z,78.51
2023-01-10T14:34:45.170Z,78.69
2023-01-10T14:38:03.834Z,78.65
2023-01-10T14:41:37.586Z,78.68
2023-01-10T14:45:39.982Z,78.75
2023-01-10T14:49:45.810Z,78.63
2023-01-10T14:53:03.741Z,78.90
2023-01-10T14:56:56.945Z,78.84
2023-01-10T15:00:48.387Z,78.61
2023-01-10T15:04:05.421Z,78.55
2023-01-10T15:07:42.102Z,78.78
2023-01-10T15:11:12.476Z,78.63
2023-01-10T15:15:16.229Z,78.59
2023-01-10T15:18:59.493Z,78.77
2023-01-10T15:22:43.259Z,78.47
2023-01-10T15:26:26.944Z,78.39
2023-01-10T15:30:06.469Z,78.62
2023-01-10T15:33:34.924Z,78.59
2023-01-10T15:37:27.745Z,78.64
2023-01-10T15:40:58.914Z,78.77
2023-01-10T15:45:05.815Z,78.88
2023-01-10T15:49:13.995Z,78.86
2023-01-10T15:52:45.704Z,78.68
2023-01-10T15:55:55.885Z,78.67
2023-01-10T16:00:00.272Z,78.61
2023-01-10T16:03:53.912Z,78.68
2023-01-10T16:07:16.813Z,78.64
2023-01-10T16:10:28.826Z,79.06
2023-01-10T16:13:57.608Z,78.79
2023-01-10T16:17:07.129Z,79.22
2023-01-10T16:20:33.987Z,79.20
2023-01-10T16:24:17.531Z,79.34
2023-01-10T16:27:43.125Z,79.28
2023-01-10T16:31:37.060Z,79.32
2023-01-10T16:35:01.603Z,79.39
2023-01-10T16:38:57.339Z,79.33
2023-01-10T16:42:45.236Z,79.47
2023-01-10T16:46:32.150Z,79.36
2023-01-10T16:50:05.520Z,79.21
2023-01-10T16:53:51.697Z,79.18
2023-01-10T16:57:48.399Z,79.20
2023-01-10T17:01:15.073Z,79.14
2023-01-10T17:05:08.097Z,79.15
2023-01-10T17:08:31.339Z,79.02
2023-01-10T17:11:50.219Z,79.01
2023-01-10T17:15:32.503Z,78.81
2023-01-10T17:19:49.400Z,78.95
2023-01-10T17:23:53.163Z,78.68
2023-01-10T17:27:53.947Z,78.66
2023-01-10T17:31:48.053Z,78.65
2023-01-10T17:35:55.674Z,78.54
2023-01-10T17:39:51.220Z,78.68
2023-01-10T17:43:40.525Z,78.43
2023-01-10T17:47:08.729Z,78.57
2023-01-10T17:50:29.842Z,78.32
2023-01-10T17:54:21.233Z,78.21
2023-01-10T17:57:30.041Z,78.09
2023-01-10T18:01:25.179Z,77.69
2023-01-10T18:05:01.744Z,77.66
2023-01-10T18:09:05.378Z,77.86
2023-01-10T18:13:03.683Z,77.74
2023-01-10T18:17:07.517Z,77.78
2023-01-10T18:21:08.290Z,77.95
2023-01-10T18:24:11.742Z,77.88
2023-01-10T18:28:12.745Z,77.79
2023-01-10T18:32:07.030Z,78.03
2023-01-10T18:40:55.252Z,77.60
2023-01-10T18:44:54.421Z,77.44
2023-01-10T18:49:01.631Z,77.64
2023-01-10T18:58:53.952Z,77.76
2023-01-10T19:02:24.215Z,77.62
2023-01-10T19:23:59.169Z,77.60
2023-01-10T19:32:04.049Z,77.81
2023-01-10T19:36:04.923Z,77.76
2023-01-10T19:40:07.745Z,77.82
2023-01-10T19:43:41.861Z,77.62
2023-01-10T19:47:46.043Z,77.68
2023-01-10T19:51:47.544Z,77.58
2023-01-10T19:55:12.552Z,77.43
2023-01-10T19:59:39.023Z,77.72
2023-01-10T20:03:34.050Z,77.34
2023-01-10T23:56:13.953Z,70.21
